sensor_id;sensor_type;location;lat;lon;timestamp;pressure;altitude;pressure_sealevel;temperature;humidity
7966;BME280;4028;43.272;26.932;2023-03-11T00:00:43;97357.53;;;15.19;100.00
7966;BME280;4028;43.272;26.932;2023-03-11T00:03:11;97363.69;;;15.19;100.00
7966;BME280;4028;43.272;26.932;2023-03-11T00:05:40;97359.00;;;15.15;100.00
7966;BME280;4028;43.272;26.932;2023-03-11T00:08:08;97359.53;;;14.98;100.00
7966;BME280;4028;43.272;26.932;2023-03-11T00:10:36;97348.56;;;14.81;100.00
7966;BME280;4028;43.272;26.932;2023-03-11T00:13:04;97338.56;;;14.77;100.00
7966;BME280;4028;43.272;26.932;2023-03-11T00:15:30;97348.78;;;14.80;100.00
7966;BME280;4028;43.272;26.932;2023-03-11T00:17:56;97328.50;;;14.79;100.00
7966;BME280;4028;43.272;26.932;2023-03-11T00:20:28;97340.28;;;14.65;100.00
7966;BME280;4028;43.272;26.932;2023-03-11T00:22:54;97330.06;;;14.62;100.00
7966;BME280;4028;43.272;26.932;2023-03-11T00:25:22;97329.06;;;14.56;100.00
7966;BME280;4028;43.272;26.932;2023-03-11T00:27:48;97324.16;;;14.53;100.00
7966;BME280;4028;43.272;26.932;2023-03-11T00:30:15;97322.28;;;14.60;100.00
7966;BME280;4028;43.272;26.932;2023-03-11T00:32:41;97325.72;;;14.67;100.00
7966;BME280;4028;43.272;26.932;2023-03-11T00:35:07;97316.69;;;14.68;100.00
7966;BME280;4028;43.272;26.932;2023-03-11T00:37:33;97310.16;;;14.71;100.00
7966;BME280;4028;43.272;26.932;2023-03-11T00:39:59;97306.84;;;14.75;100.00
7966;BME280;4028;43.272;26.932;2023-03-11T00:42:25;97308.88;;;14.73;100.00
7966;BME280;4028;43.272;26.932;2023-03-11T00:44:50;97298.03;;;14.75;100.00
7966;BME280;4028;43.272;26.932;2023-03-11T00:47:16;97291.47;;;14.77;100.00
7966;BME280;4028;43.272;26.932;2023-03-11T00:49:41;97279.19;;;14.76;100.00
7966;BME280;4028;43.272;26.932;2023-03-11T00:52:07;97291.50;;;14.71;100.00
7966;BME280;4028;43.272;26.932;2023-03-11T00:54:33;97284.41;;;14.65;100.00
7966;BME280;4028;43.272;26.932;2023-03-11T00:56:58;97283.66;;;14.82;100.00
7966;BME280;4028;43.272;26.932;2023-03-11T00:59:23;97258.63;;;14.90;100.00
7966;BME280;4028;43.272;26.932;2023-03-11T01:01:50;97262.25;;;14.96;100.00
7966;BME280;4028;43.272;26.932;2023-03-11T01:04:15;97256.44;;;15.05;100.00
7966;BME280;4028;43.272;26.932;2023-03-11T01:06:41;97254.63;;;14.99;100.00
7966;BME280;4028;43.272;26.932;2023-03-11T01:09:06;97237.63;;;15.00;100.00
7966;BME280;4028;43.272;26.932;2023-03-11T01:11:32;97244.28;;;15.09;100.00
7966;BME280;4028;43.272;26.932;2023-03-11T01:13:57;97247.63;;;15.05;100.00
7966;BME280;4028;43.272;26.932;2023-03-11T01:16:23;97235.88;;;15.13;100.00
7966;BME280;4028;43.272;26.932;2023-03-11T01:18:49;97259.78;;;15.19;100.00
7966;BME280;4028;43.272;26.932;2023-03-11T01:21:14;97268.66;;;15.56;100.00
7966;BME280;4028;43.272;26.932;2023-03-11T01:23:40;97265.38;;;15.54;100.00
7966;BME280;4028;43.272;26.932;2023-03-11T01:26:06;97262.03;;;15.22;100.00
7966;BME280;4028;43.272;26.932;2023-03-11T01:28:31;97260.75;;;15.25;100.00
7966;BME280;4028;43.272;26.932;2023-03-11T01:30:57;97256.00;;;15.08;100.00
7966;BME280;4028;43.272;26.932;2023-03-11T01:33:22;97263.94;;;15.15;100.00
7966;BME280;4028;43.272;26.932;2023-03-11T01:35:48;97264.75;;;15.16;100.00
7966;BME280;4028;43.272;26.932;2023-03-11T01:38:13;97255.56;;;15.12;100.00
7966;BME280;4028;43.272;26.932;2023-03-11T01:40:43;97248.66;;;15.04;100.00
7966;BME280;4028;43.272;26.932;2023-03-11T01:44:01;97243.13;;;15.05;100.00
7966;BME280;4028;43.272;26.932;2023-03-11T01:49:17;97245.50;;;14.89;100.00
7966;BME280;4028;43.272;26.932;2023-03-11T01:51:45;97245.88;;;14.92;100.00
7966;BME280;4028;43.272;26.932;2023-03-11T01:54:16;97243.88;;;14.88;100.00
7966;BME280;4028;43.272;26.932;2023-03-11T01:56:43;97230.50;;;14.94;100.00
7966;BME280;4028;43.272;26.932;2023-03-11T01:59:13;97240.34;;;14.94;100.00
7966;BME280;4028;43.272;26.932;2023-03-11T02:02:14;97230.00;;;15.04;100.00
7966;BME280;4028;43.272;26.932;2023-03-11T02:04:42;97218.78;;;15.02;100.00
7966;BME280;4028;43.272;26.932;2023-03-11T02:07:08;97231.59;;;15.12;100.00
7966;BME280;4028;43.272;26.932;2023-03-11T02:09:34;97208.81;;;15.16;100.00
7966;BME280;4028;43.272;26.932;2023-03-11T02:12:00;97201.69;;;15.09;100.00
7966;BME280;4028;43.272;26.932;2023-03-11T02:14:27;97196.50;;;15.15;100.00
7966;BME280;4028;43.272;26.932;2023-03-11T02:16:54;97201.47;;;15.11;100.00
7966;BME280;4028;43.272;26.932;2023-03-11T02:19:47;97182.69;;;15.06;100.00
7966;BME280;4028;43.272;26.932;2023-03-11T02:22:16;97185.53;;;15.04;100.00
7966;BME280;4028;43.272;26.932;2023-03-11T02:24:56;97187.56;;;15.09;100.00
7966;BME280;4028;43.272;26.932;2023-03-11T02:27:26;97184.69;;;15.11;100.00
7966;BME280;4028;43.272;26.932;2023-03-11T02:29:54;97164.31;;;14.98;100.00
7966;BME280;4028;43.272;26.932;2023-03-11T02:32:21;97177.41;;;14.99;100.00
7966;BME280;4028;43.272;26.932;2023-03-11T02:34:47;97173.28;;;15.03;100.00
7966;BME280;4028;43.272;26.932;2023-03-11T02:37:15;97172.16;;;14.93;100.00
7966;BME280;4028;43.272;26.932;2023-03-11T02:39:43;97164.38;;;14.91;100.00
7966;BME280;4028;43.272;26.932;2023-03-11T02:44:55;97179.59;;;14.84;100.00
7966;BME280;4028;43.272;26.932;2023-03-11T02:47:22;97170.78;;;14.83;100.00
7966;BME280;4028;43.272;26.932;2023-03-11T02:49:48;97174.72;;;14.81;100.00
7966;BME280;4028;43.272;26.932;2023-03-11T02:52:13;97137.94;;;14.71;100.00
7966;BME280;4028;43.272;26.932;2023-03-11T02:54:39;97167.94;;;14.85;100.00
7966;BME280;4028;43.272;26.932;2023-03-11T02:57:04;97163.19;;;14.87;100.00
7966;BME280;4028;43.272;26.932;2023-03-11T02:59:30;97168.25;;;14.95;100.00
7966;BME280;4028;43.272;26.932;2023-03-11T03:01:55;97152.84;;;14.97;100.00
7966;BME280;4028;43.272;26.932;2023-03-11T03:04:21;97148.34;;;14.98;100.00
7966;BME280;4028;43.272;26.932;2023-03-11T03:06:46;97138.34;;;14.93;100.00
7966;BME280;4028;43.272;26.932;2023-03-11T03:09:12;97123.47;;;14.86;100.00
7966;BME280;4028;43.272;26.932;2023-03-11T03:11:37;97113.25;;;14.82;100.00
7966;BME280;4028;43.272;26.932;2023-03-11T03:14:02;97115.25;;;14.87;100.00
7966;BME280;4028;43.272;26.932;2023-03-11T03:16:28;97105.66;;;14.86;100.00
7966;BME280;4028;43.272;26.932;2023-03-11T03:18:53;97100.41;;;14.79;100.00
7966;BME280;4028;43.272;26.932;2023-03-11T03:21:19;97118.59;;;14.82;100.00
7966;BME280;4028;43.272;26.932;2023-03-11T03:23:44;97114.22;;;14.88;100.00
7966;BME280;4028;43.272;26.932;2023-03-11T03:26:12;97112.38;;;14.89;100.00
7966;BME280;4028;43.272;26.932;2023-03-11T03:28:38;97108.53;;;14.85;100.00
7966;BME280;4028;43.272;26.932;2023-03-11T03:31:05;97110.00;;;14.80;100.00
7966;BME280;4028;43.272;26.932;2023-03-11T03:33:31;97110.66;;;14.76;100.00
7966;BME280;4028;43.272;26.932;2023-03-11T03:35:57;97098.56;;;14.80;100.00
7966;BME280;4028;43.272;26.932;2023-03-11T03:38:22;97096.03;;;14.85;100.00
7966;BME280;4028;43.272;26.932;2023-03-11T03:40:47;97083.91;;;14.89;100.00
7966;BME280;4028;43.272;26.932;2023-03-11T03:43:13;97077.56;;;14.90;100.00
7966;BME280;4028;43.272;26.932;2023-03-11T03:45:39;97093.53;;;14.90;100.00
7966;BME280;4028;43.272;26.932;2023-03-11T03:48:05;97085.41;;;14.85;100.00
7966;BME280;4028;43.272;26.932;2023-03-11T03:50:31;97083.31;;;14.87;100.00
7966;BME280;4028;43.272;26.932;2023-03-11T03:52:57;97072.94;;;14.79;100.00
7966;BME280;4028;43.272;26.932;2023-03-11T03:55:22;97074.59;;;14.80;100.00
7966;BME280;4028;43.272;26.932;2023-03-11T03:57:48;97073.09;;;14.84;100.00
7966;BME280;4028;43.272;26.932;2023-03-11T04:00:13;97085.13;;;14.68;100.00
7966;BME280;4028;43.272;26.932;2023-03-11T04:02:40;97078.03;;;14.62;100.00
7966;BME280;4028;43.272;26.932;2023-03-11T04:05:05;97089.34;;;14.57;100.00
7966;BME280;4028;43.272;26.932;2023-03-11T04:07:33;97079.81;;;14.68;100.00
7966;BME280;4028;43.272;26.932;2023-03-11T04:09:59;97060.75;;;14.71;100.00
7966;BME280;4028;43.272;26.932;2023-03-11T04:12:25;97049.38;;;14.82;100.00
7966;BME280;4028;43.272;26.932;2023-03-11T04:14:50;97057.34;;;14.82;100.00
7966;BME280;4028;43.272;26.932;2023-03-11T04:17:16;97049.00;;;14.79;100.00
7966;BME280;4028;43.272;26.932;2023-03-11T04:19:42;97032.19;;;14.78;100.00
7966;BME280;4028;43.272;26.932;2023-03-11T04:22:08;97037.69;;;14.83;100.00
7966;BME280;4028;43.272;26.932;2023-03-11T04:24:33;97030.06;;;14.87;100.00
7966;BME280;4028;43.272;26.932;2023-03-11T04:26:59;97039.81;;;14.93;100.00
7966;BME280;4028;43.272;26.932;2023-03-11T04:29:24;97020.00;;;14.89;100.00
7966;BME280;4028;43.272;26.932;2023-03-11T04:31:50;97010.34;;;14.95;100.00
7966;BME280;4028;43.272;26.932;2023-03-11T04:34:15;97007.44;;;14.96;100.00
7966;BME280;4028;43.272;26.932;2023-03-11T04:36:41;97030.13;;;14.99;100.00
7966;BME280;4028;43.272;26.932;2023-03-11T04:39:06;97018.00;;;15.03;100.00
7966;BME280;4028;43.272;26.932;2023-03-11T04:41:32;97027.13;;;14.95;100.00
7966;BME280;4028;43.272;26.932;2023-03-11T04:43:58;97018.53;;;14.93;100.00
7966;BME280;4028;43.272;26.932;2023-03-11T04:46:24;97014.75;;;15.01;100.00
7966;BME280;4028;43.272;26.932;2023-03-11T04:48:50;97016.63;;;15.00;100.00
7966;BME280;4028;43.272;26.932;2023-03-11T04:51:16;97023.31;;;15.03;100.00
7966;BME280;4028;43.272;26.932;2023-03-11T04:53:41;97018.75;;;15.10;100.00
7966;BME280;4028;43.272;26.932;2023-03-11T04:56:07;97020.91;;;15.01;100.00
7966;BME280;4028;43.272;26.932;2023-03-11T04:58:32;97026.22;;;15.01;100.00
7966;BME280;4028;43.272;26.932;2023-03-11T05:00:58;97024.88;;;14.92;100.00
7966;BME280;4028;43.272;26.932;2023-03-11T05:03:23;97024.38;;;15.02;100.00
7966;BME280;4028;43.272;26.932;2023-03-11T05:05:49;97027.31;;;15.12;100.00
7966;BME280;4028;43.272;26.932;2023-03-11T05:08:14;97020.28;;;15.18;100.00
7966;BME280;4028;43.272;26.932;2023-03-11T05:10:40;97013.44;;;15.10;100.00
7966;BME280;4028;43.272;26.932;2023-03-11T05:13:07;97018.94;;;15.27;100.00
7966;BME280;4028;43.272;26.932;2023-03-11T05:15:32;97028.78;;;15.26;100.00
7966;BME280;4028;43.272;26.932;2023-03-11T05:17:58;97027.63;;;15.34;100.00
7966;BME280;4028;43.272;26.932;2023-03-11T05:20:23;97039.34;;;15.33;100.00
7966;BME280;4028;43.272;26.932;2023-03-11T05:22:49;97037.13;;;15.30;100.00
7966;BME280;4028;43.272;26.932;2023-03-11T05:25:15;97026.59;;;15.35;100.00
7966;BME280;4028;43.272;26.932;2023-03-11T05:27:40;97017.72;;;15.41;100.00
7966;BME280;4028;43.272;26.932;2023-03-11T05:30:06;97015.41;;;15.45;100.00
7966;BME280;4028;43.272;26.932;2023-03-11T05:32:32;97022.72;;;15.49;100.00
7966;BME280;4028;43.272;26.932;2023-03-11T05:34:57;97011.38;;;15.54;100.00
7966;BME280;4028;43.272;26.932;2023-03-11T05:37:23;97011.72;;;15.46;100.00
7966;BME280;4028;43.272;26.932;2023-03-11T05:39:50;97014.69;;;15.38;100.00
7966;BME280;4028;43.272;26.932;2023-03-11T05:42:15;97024.66;;;15.42;100.00
7966;BME280;4028;43.272;26.932;2023-03-11T05:44:41;97027.56;;;15.41;100.00
7966;BME280;4028;43.272;26.932;2023-03-11T05:47:06;97035.34;;;15.42;100.00
7966;BME280;4028;43.272;26.932;2023-03-11T05:49:32;97045.63;;;15.39;100.00
7966;BME280;4028;43.272;26.932;2023-03-11T05:51:57;97042.94;;;15.39;100.00
7966;BME280;4028;43.272;26.932;2023-03-11T05:54:23;97045.84;;;15.37;100.00
7966;BME280;4028;43.272;26.932;2023-03-11T05:56:48;97046.13;;;15.47;100.00
7966;BME280;4028;43.272;26.932;2023-03-11T05:59:14;97047.84;;;15.42;100.00
7966;BME280;4028;43.272;26.932;2023-03-11T06:01:41;97040.13;;;15.52;100.00
7966;BME280;4028;43.272;26.932;2023-03-11T06:04:07;97039.44;;;15.56;100.00
7966;BME280;4028;43.272;26.932;2023-03-11T06:06:33;97031.31;;;15.51;100.00
7966;BME280;4028;43.272;26.932;2023-03-11T06:08:59;97038.97;;;15.59;100.00
7966;BME280;4028;43.272;26.932;2023-03-11T06:11:26;97034.25;;;15.62;100.00
7966;BME280;4028;43.272;26.932;2023-03-11T06:13:55;97024.84;;;15.59;100.00
7966;BME280;4028;43.272;26.932;2023-03-11T06:16:22;97034.44;;;15.60;100.00
7966;BME280;4028;43.272;26.932;2023-03-11T06:18:47;97025.69;;;15.71;100.00
7966;BME280;4028;43.272;26.932;2023-03-11T06:21:18;97023.16;;;15.76;100.00
7966;BME280;4028;43.272;26.932;2023-03-11T06:23:44;97026.06;;;15.75;100.00
7966;BME280;4028;43.272;26.932;2023-03-11T06:26:11;97024.44;;;15.74;100.00
7966;BME280;4028;43.272;26.932;2023-03-11T06:28:38;97022.34;;;15.76;100.00
7966;BME280;4028;43.272;26.932;2023-03-11T06:31:32;97023.91;;;15.83;100.00
7966;BME280;4028;43.272;26.932;2023-03-11T06:33:56;97027.00;;;15.69;100.00
7966;BME280;4028;43.272;26.932;2023-03-11T06:36:23;97019.47;;;15.77;100.00
7966;BME280;4028;43.272;26.932;2023-03-11T06:38:53;97022.88;;;15.96;100.00
7966;BME280;4028;43.272;26.932;2023-03-11T06:41:19;97014.09;;;16.07;100.00
7966;BME280;4028;43.272;26.932;2023-03-11T06:43:45;97020.91;;;16.15;100.00
7966;BME280;4028;43.272;26.932;2023-03-11T06:46:15;97022.66;;;16.56;100.00
7966;BME280;4028;43.272;26.932;2023-03-11T06:48:41;97010.59;;;16.66;100.00
7966;BME280;4028;43.272;26.932;2023-03-11T06:51:07;97010.00;;;16.52;100.00
7966;BME280;4028;43.272;26.932;2023-03-11T06:53:33;97017.91;;;16.47;100.00
7966;BME280;4028;43.272;26.932;2023-03-11T06:56:07;97024.28;;;16.10;100.00
7966;BME280;4028;43.272;26.932;2023-03-11T06:58:35;97018.13;;;16.22;100.00
7966;BME280;4028;43.272;26.932;2023-03-11T07:01:02;97014.19;;;16.95;100.00
7966;BME280;4028;43.272;26.932;2023-03-11T07:03:28;97013.44;;;16.99;100.00
7966;BME280;4028;43.272;26.932;2023-03-11T07:05:54;97019.16;;;17.31;100.00
7966;BME280;4028;43.272;26.932;2023-03-11T07:08:19;97011.28;;;17.53;100.00
7966;BME280;4028;43.272;26.932;2023-03-11T07:10:45;97011.28;;;17.53;100.00
7966;BME280;4028;43.272;26.932;2023-03-11T07:13:12;97016.56;;;17.65;100.00
7966;BME280;4028;43.272;26.932;2023-03-11T07:15:38;96990.31;;;18.46;100.00
7966;BME280;4028;43.272;26.932;2023-03-11T07:18:03;97002.88;;;18.79;100.00
7966;BME280;4028;43.272;26.932;2023-03-11T07:20:29;96991.38;;;19.77;100.00
7966;BME280;4028;43.272;26.932;2023-03-11T07:22:55;96991.94;;;21.06;90.86
7966;BME280;4028;43.272;26.932;2023-03-11T07:25:20;96982.47;;;20.93;81.60
7966;BME280;4028;43.272;26.932;2023-03-11T07:27:45;96985.13;;;20.03;93.82
7966;BME280;4028;43.272;26.932;2023-03-11T07:30:11;97014.22;;;19.57;100.00
7966;BME280;4028;43.272;26.932;2023-03-11T07:32:37;97068.88;;;18.68;100.00
7966;BME280;4028;43.272;26.932;2023-03-11T07:35:03;97075.06;;;17.61;100.00
7966;BME280;4028;43.272;26.932;2023-03-11T07:37:28;97097.31;;;16.98;100.00
7966;BME280;4028;43.272;26.932;2023-03-11T07:39:54;97096.91;;;16.24;100.00
7966;BME280;4028;43.272;26.932;2023-03-11T07:42:20;97079.75;;;15.78;100.00
7966;BME280;4028;43.272;26.932;2023-03-11T07:44:45;97075.03;;;15.62;100.00
7966;BME280;4028;43.272;26.932;2023-03-11T07:47:10;97070.97;;;14.93;100.00
7966;BME280;4028;43.272;26.932;2023-03-11T07:49:36;97077.50;;;14.53;100.00
7966;BME280;4028;43.272;26.932;2023-03-11T07:52:01;97069.72;;;14.27;100.00
7966;BME280;4028;43.272;26.932;2023-03-11T07:54:27;97074.66;;;13.98;100.00
7966;BME280;4028;43.272;26.932;2023-03-11T07:56:52;97068.88;;;14.08;100.00
7966;BME280;4028;43.272;26.932;2023-03-11T07:59:18;97060.94;;;14.01;100.00
7966;BME280;4028;43.272;26.932;2023-03-11T08:01:44;97057.94;;;13.91;100.00
7966;BME280;4028;43.272;26.932;2023-03-11T08:04:12;97051.81;;;13.91;100.00
7966;BME280;4028;43.272;26.932;2023-03-11T08:06:41;97075.72;;;13.91;100.00
7966;BME280;4028;43.272;26.932;2023-03-11T08:09:08;97058.38;;;13.88;100.00
7966;BME280;4028;43.272;26.932;2023-03-11T08:11:34;97053.28;;;14.37;100.00
7966;BME280;4028;43.272;26.932;2023-03-11T08:14:00;97045.38;;;15.10;100.00
7966;BME280;4028;43.272;26.932;2023-03-11T08:16:26;97033.19;;;15.63;100.00
7966;BME280;4028;43.272;26.932;2023-03-11T08:18:52;97041.44;;;15.31;100.00
7966;BME280;4028;43.272;26.932;2023-03-11T08:21:22;97038.34;;;15.16;100.00
7966;BME280;4028;43.272;26.932;2023-03-11T08:23:49;97037.16;;;15.12;100.00
7966;BME280;4028;43.272;26.932;2023-03-11T08:26:17;97034.66;;;14.80;100.00
7966;BME280;4028;43.272;26.932;2023-03-11T08:28:44;97041.47;;;14.76;100.00
7966;BME280;4028;43.272;26.932;2023-03-11T08:31:29;97052.19;;;14.44;100.00
7966;BME280;4028;43.272;26.932;2023-03-11T08:33:58;97045.94;;;14.32;100.00
7966;BME280;4028;43.272;26.932;2023-03-11T08:36:25;97030.69;;;14.46;100.00
7966;BME280;4028;43.272;26.932;2023-03-11T08:38:50;97026.59;;;14.25;100.00
7966;BME280;4028;43.272;26.932;2023-03-11T08:41:16;97019.06;;;14.40;100.00
7966;BME280;4028;43.272;26.932;2023-03-11T08:43:41;97030.94;;;14.38;100.00
7966;BME280;4028;43.272;26.932;2023-03-11T08:46:22;97028.84;;;14.46;100.00
7966;BME280;4028;43.272;26.932;2023-03-11T08:48:48;97026.78;;;14.48;100.00
7966;BME280;4028;43.272;26.932;2023-03-11T08:51:15;97027.84;;;14.66;100.00
7966;BME280;4028;43.272;26.932;2023-03-11T08:53:40;97010.38;;;14.88;100.00
7966;BME280;4028;43.272;26.932;2023-03-11T08:56:06;97022.09;;;15.05;100.00
7966;BME280;4028;43.272;26.932;2023-03-11T08:58:32;97027.50;;;15.29;100.00
7966;BME280;4028;43.272;26.932;2023-03-11T09:00:57;97034.03;;;15.63;100.00
7966;BME280;4028;43.272;26.932;2023-03-11T09:03:23;97022.22;;;16.71;100.00
7966;BME280;4028;43.272;26.932;2023-03-11T09:05:55;97023.88;;;17.70;100.00
7966;BME280;4028;43.272;26.932;2023-03-11T09:08:21;96991.50;;;17.54;100.00
7966;BME280;4028;43.272;26.932;2023-03-11T09:10:46;97025.25;;;16.75;100.00
7966;BME280;4028;43.272;26.932;2023-03-11T09:13:12;97039.13;;;16.06;100.00
7966;BME280;4028;43.272;26.932;2023-03-11T09:15:37;97037.91;;;15.79;100.00
7966;BME280;4028;43.272;26.932;2023-03-11T09:18:04;97033.44;;;15.61;100.00
7966;BME280;4028;43.272;26.932;2023-03-11T09:20:29;97031.94;;;15.65;100.00
7966;BME280;4028;43.272;26.932;2023-03-11T09:22:55;97030.78;;;15.31;100.00
7966;BME280;4028;43.272;26.932;2023-03-11T09:25:20;97035.22;;;15.19;100.00
7966;BME280;4028;43.272;26.932;2023-03-11T09:27:46;97032.81;;;15.29;100.00
7966;BME280;4028;43.272;26.932;2023-03-11T09:30:12;97022.50;;;15.51;100.00
7966;BME280;4028;43.272;26.932;2023-03-11T09:32:37;97020.72;;;15.45;100.00
7966;BME280;4028;43.272;26.932;2023-03-11T09:35:04;97015.06;;;15.41;100.00
7966;BME280;4028;43.272;26.932;2023-03-11T09:37:29;97010.56;;;15.53;100.00
7966;BME280;4028;43.272;26.932;2023-03-11T09:39:55;97009.66;;;15.59;100.00
7966;BME280;4028;43.272;26.932;2023-03-11T09:42:29;97014.03;;;15.72;100.00
7966;BME280;4028;43.272;26.932;2023-03-11T09:45:31;97012.03;;;15.68;100.00
7966;BME280;4028;43.272;26.932;2023-03-11T09:50:56;97017.59;;;15.66;100.00
7966;BME280;4028;43.272;26.932;2023-03-11T09:56:05;97015.03;;;15.71;100.00
7966;BME280;4028;43.272;26.932;2023-03-11T09:58:52;96992.97;;;15.52;100.00
7966;BME280;4028;43.272;26.932;2023-03-11T10:01:29;96997.38;;;16.00;100.00
7966;BME280;4028;43.272;26.932;2023-03-11T10:06:30;96998.75;;;16.85;100.00
7966;BME280;4028;43.272;26.932;2023-03-11T10:26:12;96969.31;;;17.71;100.00
7966;BME280;4028;43.272;26.932;2023-03-11T10:29:19;96974.22;;;17.74;100.00
7966;BME280;4028;43.272;26.932;2023-03-11T10:34:42;96958.25;;;17.96;100.00
7966;BME280;4028;43.272;26.932;2023-03-11T10:37:32;96949.00;;;18.59;95.47
7966;BME280;4028;43.272;26.932;2023-03-11T10:42:43;96929.72;;;19.28;79.48
7966;BME280;4028;43.272;26.932;2023-03-11T10:45:12;96945.84;;;19.33;80.13
7966;BME280;4028;43.272;26.932;2023-03-11T10:47:38;96943.13;;;19.82;74.70
7966;BME280;4028;43.272;26.932;2023-03-11T10:50:04;96945.09;;;19.96;70.26
7966;BME280;4028;43.272;26.932;2023-03-11T10:52:29;96943.97;;;19.60;69.48
7966;BME280;4028;43.272;26.932;2023-03-11T10:55:00;96947.91;;;19.53;70.37
7966;BME280;4028;43.272;26.932;2023-03-11T10:59:56;96945.94;;;19.70;65.16
7966;BME280;4028;43.272;26.932;2023-03-11T11:02:23;96945.94;;;18.89;68.61
7966;BME280;4028;43.272;26.932;2023-03-11T11:05:04;96948.22;;;19.02;68.31
7966;BME280;4028;43.272;26.932;2023-03-11T11:07:36;96945.00;;;19.27;69.66
7966;BME280;4028;43.272;26.932;2023-03-11T11:12:42;96942.06;;;19.29;67.21
7966;BME280;4028;43.272;26.932;2023-03-11T11:18:13;96937.53;;;19.88;64.26
7966;BME280;4028;43.272;26.932;2023-03-11T11:21:13;96941.47;;;20.13;59.33
7966;BME280;4028;43.272;26.932;2023-03-11T11:23:41;96942.78;;;20.10;57.62
7966;BME280;4028;43.272;26.932;2023-03-11T11:26:24;96932.59;;;19.21;61.39
7966;BME280;4028;43.272;26.932;2023-03-11T11:31:36;96933.81;;;18.26;74.25
7966;BME280;4028;43.272;26.932;2023-03-11T11:34:02;96929.31;;;18.09;77.15
7966;BME280;4028;43.272;26.932;2023-03-11T11:36:34;96934.34;;;18.23;78.06
7966;BME280;4028;43.272;26.932;2023-03-11T11:39:01;96929.31;;;18.09;82.05
7966;BME280;4028;43.272;26.932;2023-03-11T11:41:31;96937.66;;;18.13;79.38
7966;BME280;4028;43.272;26.932;2023-03-11T11:43:59;96940.84;;;17.93;82.82
7966;BME280;4028;43.272;26.932;2023-03-11T11:46:40;96945.22;;;17.99;78.41
7966;BME280;4028;43.272;26.932;2023-03-11T11:49:26;96942.56;;;17.54;77.04
7966;BME280;4028;43.272;26.932;2023-03-11T11:57:14;96943.72;;;16.84;86.58
7966;BME280;4028;43.272;26.932;2023-03-11T11:59:40;96948.78;;;16.97;90.34
7966;BME280;4028;43.272;26.932;2023-03-11T12:05:08;96931.31;;;16.66;98.96
7966;BME280;4028;43.272;26.932;2023-03-11T12:26:42;96934.19;;;17.79;72.17
7966;BME280;4028;43.272;26.932;2023-03-11T12:29:25;96941.47;;;17.66;79.06
7966;BME280;4028;43.272;26.932;2023-03-11T12:31:54;96937.03;;;17.27;79.86
7966;BME280;4028;43.272;26.932;2023-03-11T12:34:21;96931.63;;;17.38;77.82
7966;BME280;4028;43.272;26.932;2023-03-11T12:36:50;96929.38;;;17.64;74.78
7966;BME280;4028;43.272;26.932;2023-03-11T12:39:34;96929.09;;;17.77;74.57
7966;BME280;4028;43.272;26.932;2023-03-11T12:42:21;96929.00;;;17.89;72.92
7966;BME280;4028;43.272;26.932;2023-03-11T12:44:48;96922.16;;;18.15;69.35
7966;BME280;4028;43.272;26.932;2023-03-11T12:47:17;96921.72;;;18.40;65.65
7966;BME280;4028;43.272;26.932;2023-03-11T12:49:45;96922.66;;;18.51;63.51
7966;BME280;4028;43.272;26.932;2023-03-11T12:54:45;96912.72;;;18.29;63.69
7966;BME280;4028;43.272;26.932;2023-03-11T13:08:06;96910.66;;;18.14;62.22
7966;BME280;4028;43.272;26.932;2023-03-11T13:10:47;96918.13;;;18.12;62.95
7966;BME280;4028;43.272;26.932;2023-03-11T13:13:36;96920.06;;;18.17;63.21
7966;BME280;4028;43.272;26.932;2023-03-11T13:18:39;96913.94;;;17.83;61.83
7966;BME280;4028;43.272;26.932;2023-03-11T13:29:51;96903.69;;;18.13;60.41
7966;BME280;4028;43.272;26.932;2023-03-11T13:40:59;96886.38;;;18.21;58.14
7966;BME280;4028;43.272;26.932;2023-03-11T13:43:25;96888.78;;;18.01;60.68
7966;BME280;4028;43.272;26.932;2023-03-11T13:45:56;96882.88;;;17.99;59.21
7966;BME280;4028;43.272;26.932;2023-03-11T13:48:41;96879.06;;;17.95;59.36
7966;BME280;4028;43.272;26.932;2023-03-11T13:51:16;96879.88;;;17.95;59.50
7966;BME280;4028;43.272;26.932;2023-03-11T13:53:46;96885.16;;;17.90;60.38
7966;BME280;4028;43.272;26.932;2023-03-11T13:56:22;96878.88;;;18.01;59.14
7966;BME280;4028;43.272;26.932;2023-03-11T13:58:50;96874.59;;;18.00;58.17
7966;BME280;4028;43.272;26.932;2023-03-11T14:01:16;96869.19;;;17.78;57.78
7966;BME280;4028;43.272;26.932;2023-03-11T14:03:44;96873.38;;;17.91;57.56
7966;BME280;4028;43.272;26.932;2023-03-11T14:06:13;96874.13;;;18.03;57.48
7966;BME280;4028;43.272;26.932;2023-03-11T14:08:40;96879.16;;;18.22;57.51
7966;BME280;4028;43.272;26.932;2023-03-11T14:13:41;96885.09;;;18.24;56.83
7966;BME280;4028;43.272;26.932;2023-03-11T14:16:09;96887.38;;;18.37;56.94
7966;BME280;4028;43.272;26.932;2023-03-11T14:18:45;96896.88;;;18.23;57.22
7966;BME280;4028;43.272;26.932;2023-03-11T14:21:18;96892.47;;;18.16;58.05
7966;BME280;4028;43.272;26.932;2023-03-11T14:23:46;96911.41;;;17.93;59.29
7966;BME280;4028;43.272;26.932;2023-03-11T14:26:14;96906.41;;;17.97;59.50
7966;BME280;4028;43.272;26.932;2023-03-11T14:28:53;96899.25;;;17.85;59.87
7966;BME280;4028;43.272;26.932;2023-03-11T14:31:30;96900.97;;;17.75;60.71
7966;BME280;4028;43.272;26.932;2023-03-11T14:33:59;96906.25;;;17.86;60.46
7966;BME280;4028;43.272;26.932;2023-03-11T14:36:30;96894.94;;;18.01;60.35
7966;BME280;4028;43.272;26.932;2023-03-11T14:38:55;96918.78;;;17.86;61.52
7966;BME280;4028;43.272;26.932;2023-03-11T14:41:21;96887.66;;;17.63;59.11
7966;BME280;4028;43.272;26.932;2023-03-11T14:43:49;96894.88;;;17.46;59.55
7966;BME280;4028;43.272;26.932;2023-03-11T14:46:23;96911.03;;;17.39;59.65
7966;BME280;4028;43.272;26.932;2023-03-11T14:48:51;96917.28;;;17.28;58.16
7966;BME280;4028;43.272;26.932;2023-03-11T14:51:25;96918.59;;;17.25;57.41
7966;BME280;4028;43.272;26.932;2023-03-11T14:56:44;96926.22;;;17.05;57.54
7966;BME280;4028;43.272;26.932;2023-03-11T14:59:19;96928.47;;;16.96;57.48
7966;BME280;4028;43.272;26.932;2023-03-11T15:01:48;96928.06;;;17.04;57.92